Maersk Penguin — 9VEY6 — position and weather

sailwx.info

Track history (hours):
 
Tides and Currents Weather Stations Pressure Air Temp Water Temp Dewpoint Dewpoint Depression Visibility Wind Speed Wind Dir Waves Ship Positions

Maersk Penguin

Last reported at 2018-Jan-12 14:53 UTC. Time now 2018-Jan-22 10:42 UTC.
Position N 49°43' W 003°52'.
Warning: this ship's position is 9 days out of date.

Length 244 m; draft 13.6 m.

Type: Ship. MMSI: 565532000.

Date/timePositionNaut miles runAvg speedWind from/ knotsBaromVisibWave heightAir tempDewpointWater temp
2018-Jan-12 14:53N 49°43' W 003°52'512.1
2018-Jan-12 14:29N 49°45' W 003°46'612.2
2018-Jan-12 13:59N 49°49' W 003°38'712.1
2018-Jan-12 13:24N 49°52' W 003°28'512.9
2018-Jan-12 13:00N 49°53' W 003°21'613.0
2018-Jan-12 12:30N 49°55' W 003°11'713.5
2018-Jan-12 12:00N 49°57' W 003°01'713.9
2018-Jan-12 11:30N 49°59' W 002°51'714.5
2018-Jan-12 11:01N 50°01' W 002°40'2515.1
2018-Jan-12 09:23N 50°08' W 002°03'714.7
2018-Jan-12 08:55N 50°10' W 001°53'5612.6
2018-Jan-12 04:29N 50°24' W 000°28'611.9
2018-Jan-12 04:00N 50°26' W 000°20'612.4
2018-Jan-12 03:30N 50°27' W 000°11'612.9
2018-Jan-12 03:00N 50°29' W 000°01'713.3
2018-Jan-12 02:30N 50°31' E 000°09'713.8
2018-Jan-12 02:00N 50°33' E 000°20'714.2
2018-Jan-12 01:30N 50°34' E 000°31'714.3
2018-Jan-12 01:00N 50°38' E 000°41'714.6
2018-Jan-12 00:30N 50°42' E 000°50'714.5
2018-Jan-12 00:00N 50°47' E 000°59'714.2
2018-Jan-11 23:30N 50°51' E 001°08'713.8
2018-Jan-11 22:59N 50°55' E 001°17'613.3
2018-Jan-11 22:30N 50°60' E 001°24'612.5
2018-Jan-11 22:00N 51°04' E 001°31'611.9
2018-Jan-11 21:30N 51°08' E 001°38'612.0
2018-Jan-11 21:00N 51°12' E 001°45'612.1
2018-Jan-11 20:30N 51°18' E 001°49'612.5
2018-Jan-11 20:00N 51°23' E 001°54'612.9
2018-Jan-11 19:30N 51°29' E 001°59'10711.9
2018-Jan-11 10:30N 52°29' E 004°23'5 9.4
2018-Jan-11 10:00N 52°28' E 004°30'3 6.9
2018-Jan-11 09:30N 52°28' E 004°36'0 0.6
2018-Jan-11 09:00N 52°28' E 004°37'0 0.4
2018-Jan-11 08:30N 52°28' E 004°37'1 1.1
2018-Jan-11 08:00N 52°28' E 004°38'2 3.2
2018-Jan-11 07:30N 52°27' E 004°40'3 5.8
2018-Jan-11 07:01N 52°26' E 004°44'2 4.0
2018-Jan-11 06:30N 52°24' E 004°47'0 0.7
2018-Jan-11 05:58N 52°24' E 004°46'0 0.0
2018-Jan-11 05:13N 52°24' E 004°46'0 0.0
2018-Jan-11 03:28N 52°24' E 004°46'0 0.0
2018-Jan-11 00:58N 52°24' E 004°46'0 0.0
2018-Jan-11 00:04N 52°24' E 004°46'0 0.0
2018-Jan-10 23:49N 52°24' E 004°46'0 0.0
2018-Jan-10 21:34N 52°24' E 004°46'0 0.1
2018-Jan-10 21:25N 52°24' E 004°46'0 0.0
2018-Jan-10 20:55N 52°24' E 004°46'0 0.0
2018-Jan-10 20:22N 52°24' E 004°46'0 0.0
2018-Jan-10 18:52N 52°24' E 004°46'0 0.0
2018-Jan-10 17:10N 52°24' E 004°46'0 0.0
2018-Jan-10 15:34N 52°24' E 004°46'0 0.0
2018-Jan-10 11:43N 52°24' E 004°46'0 0.0
2018-Jan-10 11:19N 52°24' E 004°46'0 0.0
2018-Jan-10 10:58N 52°24' E 004°46'0 0.0
2018-Jan-10 10:28N 52°24' E 004°46'0 0.0
2018-Jan-10 09:55N 52°24' E 004°46'0 0.0
2018-Jan-10 09:19N 52°24' E 004°46'0 0.0
2018-Jan-10 08:58N 52°24' E 004°46'0 0.0
2018-Jan-10 07:58N 52°24' E 004°46'0 0.0
2018-Jan-10 07:19N 52°24' E 004°46'0 0.0
2018-Jan-10 06:04N 52°24' E 004°46'0 0.0
2018-Jan-10 05:40N 52°24' E 004°46'0 0.0
2018-Jan-10 05:22N 52°24' E 004°46'0 0.0
2018-Jan-10 04:31N 52°24' E 004°46'0 0.0
2018-Jan-10 04:22N 52°24' E 004°46'0 0.0
2018-Jan-10 03:49N 52°24' E 004°46'0 0.0
2018-Jan-10 03:13N 52°24' E 004°46'0 0.0
2018-Jan-10 02:58N 52°24' E 004°46'0 0.0
2018-Jan-10 00:52N 52°24' E 004°46'0 0.0
2018-Jan-10 00:16N 52°24' E 004°46'0 0.0
2018-Jan-09 22:58N 52°24' E 004°46'0 0.0
2018-Jan-09 22:10N 52°24' E 004°46'0 0.0
2018-Jan-09 20:04N 52°24' E 004°46'0 0.0
2018-Jan-09 19:58N 52°24' E 004°46'0 0.0
2018-Jan-09 19:16N 52°24' E 004°46'0 0.0
2018-Jan-09 18:55N 52°24' E 004°46'0 0.0
2018-Jan-09 16:52N 52°24' E 004°46'0 0.0
2018-Jan-09 16:25N 52°24' E 004°46'0 0.0
2018-Jan-09 15:55N 52°24' E 004°46'0 0.0
2018-Jan-09 15:28N 52°24' E 004°46'0 0.0
2018-Jan-09 10:22N 52°24' E 004°46'0 0.0
2018-Jan-09 08:28N 52°24' E 004°46'0 0.0
2018-Jan-09 06:37N 52°24' E 004°46'0 0.0
2018-Jan-09 06:28N 52°24' E 004°46'0 0.0
2018-Jan-09 05:49N 52°24' E 004°46'0 0.0
2018-Jan-09 03:49N 52°24' E 004°46'0 0.0
2018-Jan-09 02:55N 52°24' E 004°46'0 0.0
2018-Jan-09 02:22N 52°24' E 004°46'0 0.0
2018-Jan-09 01:10N 52°24' E 004°46'0 0.0
2018-Jan-09 00:22N 52°24' E 004°46'0 0.0
2018-Jan-08 23:43N 52°24' E 004°46'0 0.0
2018-Jan-08 23:22N 52°24' E 004°46'0 0.0
2018-Jan-08 20:40N 52°24' E 004°46'0 0.0
2018-Jan-08 16:28N 52°24' E 004°46'0 0.0
2018-Jan-08 13:52N 52°24' E 004°46'0 0.0
2018-Jan-08 13:13N 52°24' E 004°46'0 0.0
2018-Jan-08 12:58N 52°24' E 004°46'0 0.0
2018-Jan-08 12:28N 52°24' E 004°46'0 0.0
2018-Jan-08 10:58N 52°24' E 004°46'0 0.0
2018-Jan-08 06:46N 52°24' E 004°46'0 0.0
2018-Jan-08 05:07N 52°24' E 004°46'0 0.0
2018-Jan-08 04:13N 52°24' E 004°46'0 0.0
2018-Jan-08 00:25N 52°24' E 004°46'0 0.0
2018-Jan-07 23:46N 52°24' E 004°46'0 0.0
2018-Jan-07 23:28N 52°24' E 004°46'0 0.0
2018-Jan-07 21:25N 52°24' E 004°46'0 0.0
2018-Jan-07 20:49N 52°24' E 004°46'0 0.0
2018-Jan-07 20:19N 52°24' E 004°46'0 0.0
2018-Jan-07 19:43N 52°24' E 004°46'0 0.0
2018-Jan-07 16:34N 52°24' E 004°46'0 0.0
2018-Jan-07 15:34N 52°24' E 004°46'0 0.0
2018-Jan-07 15:19N 52°24' E 004°46'0 0.0
2018-Jan-07 14:46N 52°24' E 004°46'0 0.0
2018-Jan-07 11:28N 52°24' E 004°46'0 0.0
2018-Jan-07 10:46N 52°24' E 004°46'0 0.0
2018-Jan-07 07:34N 52°24' E 004°46'0 0.0
2018-Jan-07 07:04N 52°24' E 004°46'0 0.0
2018-Jan-07 06:58N 52°24' E 004°46'0 0.0
2018-Jan-07 06:28N 52°24' E 004°46'0 0.0
2018-Jan-07 05:58N 52°24' E 004°46'0 0.0
2018-Jan-07 05:25N 52°24' E 004°46'0 0.0
2018-Jan-07 04:58N 52°24' E 004°46'0 0.0
2018-Jan-07 04:01N 52°24' E 004°46'0 0.1
2018-Jan-07 03:55N 52°24' E 004°46'0 0.0
2018-Jan-07 02:13N 52°24' E 004°46'0 0.0
2018-Jan-07 01:43N 52°24' E 004°46'0 0.0
2018-Jan-07 01:19N 52°24' E 004°46'0 0.0
2018-Jan-07 00:25N 52°24' E 004°46'0 0.0
2018-Jan-06 23:58N 52°24' E 004°46'0 0.0
2018-Jan-06 23:28N 52°24' E 004°46'0 0.0
2018-Jan-06 22:58N 52°24' E 004°46'0 0.0
2018-Jan-06 22:28N 52°24' E 004°46'0 0.0
2018-Jan-06 21:58N 52°24' E 004°46'0 0.0
2018-Jan-06 21:25N 52°24' E 004°46'0 0.0
2018-Jan-06 20:55N 52°24' E 004°46'0 0.0
2018-Jan-06 20:19N 52°24' E 004°46'0 0.0
2018-Jan-06 19:58N 52°24' E 004°46'0 0.0
2018-Jan-06 18:58N 52°24' E 004°46'0 0.0
2018-Jan-06 18:25N 52°24' E 004°46'0 0.0
2018-Jan-06 17:58N 52°24' E 004°46'0 0.0
2018-Jan-06 17:22N 52°24' E 004°46'0 0.0
2018-Jan-06 16:49N 52°24' E 004°46'0 0.0
2018-Jan-06 16:28N 52°24' E 004°46'0 0.0
2018-Jan-06 15:49N 52°24' E 004°46'0 0.0
2018-Jan-06 15:25N 52°24' E 004°46'0 0.0
2018-Jan-06 14:58N 52°24' E 004°46'0 0.0
2018-Jan-06 14:28N 52°24' E 004°46'0 0.0
2018-Jan-06 13:55N 52°24' E 004°46'0 0.0
2018-Jan-06 13:28N 52°24' E 004°46'0 0.0
2018-Jan-06 12:58N 52°24' E 004°46'0 0.0
2018-Jan-06 12:04N 52°24' E 004°46'0 0.0
2018-Jan-06 11:52N 52°24' E 004°46'0 0.0
2018-Jan-06 11:28N 52°24' E 004°46'0 0.0
2018-Jan-06 10:55N 52°24' E 004°46'0 0.0
2018-Jan-06 10:22N 52°24' E 004°46'0 0.0
2018-Jan-06 09:52N 52°24' E 004°46'0 0.0
2018-Jan-06 09:28N 52°24' E 004°46'0 0.0
2018-Jan-06 08:55N 52°24' E 004°46'0 0.0
2018-Jan-06 08:25N 52°24' E 004°46'0 0.0
2018-Jan-06 07:52N 52°24' E 004°46'0 0.0
2018-Jan-06 07:25N 52°24' E 004°46'0 0.0
2018-Jan-06 06:49N 52°24' E 004°46'0 0.0
2018-Jan-06 06:28N 52°24' E 004°46'0 0.0
2018-Jan-06 05:58N 52°24' E 004°46'0 0.0
2018-Jan-06 05:28N 52°24' E 004°46'0 0.0
2018-Jan-06 04:58N 52°24' E 004°46'0 0.0
2018-Jan-06 04:28N 52°24' E 004°46'0 0.0
2018-Jan-06 03:58N 52°24' E 004°46'0 0.0
2018-Jan-06 03:28N 52°24' E 004°46'0 0.0
2018-Jan-06 02:55N 52°24' E 004°46'0 0.0
2018-Jan-06 02:25N 52°24' E 004°46'0 0.0
2018-Jan-06 01:46N 52°24' E 004°46'0 0.0
2018-Jan-06 01:28N 52°24' E 004°46'0 0.0
2018-Jan-06 00:55N 52°24' E 004°46'0 0.0
2018-Jan-06 00:28N 52°24' E 004°46'0 0.0
2018-Jan-05 23:58N 52°24' E 004°46'0 0.0
2018-Jan-05 23:16N 52°24' E 004°46'0 0.0
2018-Jan-05 22:58N 52°24' E 004°46'0 0.0
2018-Jan-05 22:22N 52°24' E 004°46'0 0.0
2018-Jan-05 21:58N 52°24' E 004°46'0 0.0
2018-Jan-05 21:28N 52°24' E 004°46'0 0.0
2018-Jan-05 20:43N 52°24' E 004°46'0 0.0
2018-Jan-05 20:22N 52°24' E 004°46'0 0.0
2018-Jan-05 19:58N 52°24' E 004°46'0 0.0
2018-Jan-05 19:28N 52°24' E 004°46'0 0.0
2018-Jan-05 18:55N 52°24' E 004°46'0 0.0
2018-Jan-05 18:28N 52°24' E 004°46'0 0.0
2018-Jan-05 17:43N 52°24' E 004°46'0 0.0
2018-Jan-05 17:28N 52°24' E 004°46'0 0.0
2018-Jan-05 15:58N 52°24' E 004°46'0 0.0
2018-Jan-05 15:28N 52°24' E 004°46'0 0.0
2018-Jan-05 14:46N 52°24' E 004°46'0 0.0
2018-Jan-05 14:28N 52°24' E 004°46'0 0.0
2018-Jan-05 13:52N 52°24' E 004°46'0 0.0
2018-Jan-05 13:28N 52°24' E 004°46'0 0.0
2018-Jan-05 12:58N 52°24' E 004°46'0 0.0
2018-Jan-05 11:55N 52°24' E 004°46'0 0.0
2018-Jan-05 11:25N 52°24' E 004°46'0 0.0
2018-Jan-05 10:43N 52°24' E 004°46'0 0.0
2018-Jan-05 10:25N 52°24' E 004°46'0 0.0
2018-Jan-05 09:52N 52°24' E 004°46'0 0.0
2018-Jan-05 09:16N 52°24' E 004°46'0 0.0
2018-Jan-05 08:46N 52°24' E 004°46'0 0.0
2018-Jan-05 08:28N 52°24' E 004°46'0 0.0
2018-Jan-05 07:55N 52°24' E 004°46'0 0.0
2018-Jan-05 07:22N 52°24' E 004°46'0 0.0
2018-Jan-05 06:43N 52°24' E 004°46'0 0.0
2018-Jan-05 06:25N 52°24' E 004°46'0 0.0
2018-Jan-05 05:58N 52°24' E 004°46'0 0.0
2018-Jan-05 05:13N 52°24' E 004°46'0 0.0
2018-Jan-05 04:40N 52°24' E 004°46'0 0.0
2018-Jan-05 04:28N 52°24' E 004°46'0 0.0
2018-Jan-05 03:49N 52°24' E 004°46'0 0.0
2018-Jan-05 02:46N 52°24' E 004°46'0 0.0
2018-Jan-05 02:22N 52°24' E 004°46'0 0.0
2018-Jan-05 01:58N 52°24' E 004°46'0 0.0
2018-Jan-05 01:28N 52°24' E 004°46'0 0.0
2018-Jan-05 00:52N 52°24' E 004°46'0 0.0
2018-Jan-05 00:22N 52°24' E 004°46'0 0.0
2018-Jan-04 23:58N 52°24' E 004°46'0 0.0
2018-Jan-04 23:16N 52°24' E 004°46'0 0.0
2018-Jan-04 20:22N 52°24' E 004°46'0 0.0
2018-Jan-04 19:31N 52°24' E 004°46'0 0.0
2018-Jan-04 19:22N 52°24' E 004°46'0 0.0
2018-Jan-04 18:58N 52°24' E 004°46'0 0.0
2018-Jan-04 18:19N 52°24' E 004°46'0 0.0
2018-Jan-04 16:58N 52°24' E 004°46'0 0.0
2018-Jan-04 16:22N 52°24' E 004°46'0 0.0
2018-Jan-04 15:58N 52°24' E 004°46'0 0.0
2018-Jan-04 15:28N 52°24' E 004°46'0 0.0
2018-Jan-04 14:58N 52°24' E 004°46'0 0.0
2018-Jan-04 14:19N 52°24' E 004°46'0 0.0
2018-Jan-04 13:49N 52°24' E 004°46'0 0.0
2018-Jan-04 13:28N 52°24' E 004°46'0 0.0
2018-Jan-04 12:55N 52°24' E 004°46'0 0.0
2018-Jan-04 12:25N 52°24' E 004°46'0 0.0
2018-Jan-04 11:55N 52°24' E 004°46'0 0.0
2018-Jan-04 11:22N 52°24' E 004°46'0 0.0
2018-Jan-04 10:58N 52°24' E 004°46'0 0.0
2018-Jan-04 10:28N 52°24' E 004°46'0 0.0
2018-Jan-04 09:22N 52°24' E 004°46'0 0.0
2018-Jan-04 08:49N 52°24' E 004°46'0 0.0
2018-Jan-04 08:28N 52°24' E 004°46'0 0.0
2018-Jan-04 07:40N 52°24' E 004°46'0 0.0
2018-Jan-04 07:22N 52°24' E 004°46'0 0.0
2018-Jan-04 06:46N 52°24' E 004°46'0 0.0
2018-Jan-04 06:07N 52°24' E 004°46'0 0.0
2018-Jan-04 05:58N 52°24' E 004°46'0 0.0
2018-Jan-04 05:28N 52°24' E 004°46'0 0.0
2018-Jan-04 04:58N 52°24' E 004°46'0 0.0
2018-Jan-04 04:22N 52°24' E 004°46'0 0.0
2018-Jan-04 03:55N 52°24' E 004°46'0 0.0
2018-Jan-04 03:28N 52°24' E 004°46'0 0.0
2018-Jan-04 02:52N 52°24' E 004°46'0 0.0
2018-Jan-04 02:28N 52°24' E 004°46'0 0.0
2018-Jan-04 01:58N 52°24' E 004°46'0 0.0
2018-Jan-04 01:28N 52°24' E 004°46'0 0.0
2018-Jan-04 00:58N 52°24' E 004°46'0 0.0
2018-Jan-04 00:16N 52°24' E 004°46'0 0.0
2018-Jan-03 23:52N 52°24' E 004°46'0 0.0
2018-Jan-03 23:28N 52°24' E 004°46'0 0.0
2018-Jan-03 22:58N 52°24' E 004°46'0 0.0
2018-Jan-03 22:16N 52°24' E 004°46'0 0.0
2018-Jan-03 21:49N 52°24' E 004°46'0 0.0
2018-Jan-03 21:04N 52°24' E 004°46'0 0.0
2018-Jan-03 20:52N 52°24' E 004°46'0 0.0
2018-Jan-03 20:22N 52°24' E 004°46'0 0.0
2018-Jan-03 19:58N 52°24' E 004°46'0 0.0
2018-Jan-03 19:28N 52°24' E 004°46'0 0.0
2018-Jan-03 18:58N 52°24' E 004°46'0 0.0
2018-Jan-03 18:28N 52°24' E 004°46'0 0.0
2018-Jan-03 17:55N 52°24' E 004°46'0 0.0
2018-Jan-03 17:22N 52°24' E 004°46'0 0.0
2018-Jan-03 16:58N 52°24' E 004°46'0 0.0
2018-Jan-03 16:25N 52°24' E 004°46'0 0.0
2018-Jan-03 15:28N 52°24' E 004°46'0 0.0
2018-Jan-03 14:58N 52°24' E 004°46'0 0.0
2018-Jan-03 14:13N 52°24' E 004°46'0 0.0
2018-Jan-03 13:49N 52°24' E 004°46'0 0.0
2018-Jan-03 13:19N 52°24' E 004°46'0 0.0
2018-Jan-03 12:58N 52°24' E 004°46'0 0.0
2018-Jan-03 12:25N 52°24' E 004°46'0 0.0
2018-Jan-03 11:46N 52°24' E 004°46'0 0.0
2018-Jan-03 11:28N 52°24' E 004°46'0 0.0
2018-Jan-03 10:58N 52°24' E 004°46'0 0.0
2018-Jan-03 10:28N 52°24' E 004°46'0 0.0
2018-Jan-03 09:52N 52°24' E 004°46'0 0.0
2018-Jan-03 09:16N 52°24' E 004°46'0 0.0
2018-Jan-03 08:58N 52°24' E 004°46'0 0.0
2018-Jan-03 08:16N 52°24' E 004°46'0 0.0
2018-Jan-03 07:55N 52°24' E 004°46'0 0.0
2018-Jan-03 07:25N 52°24' E 004°46'0 0.0
2018-Jan-03 06:52N 52°24' E 004°46'0 0.0
2018-Jan-03 06:25N 52°24' E 004°46'0 0.0
2018-Jan-03 05:58N 52°24' E 004°46'0 0.0
2018-Jan-03 05:22N 52°24' E 004°46'0 0.0
2018-Jan-03 04:49N 52°24' E 004°46'0 0.0
2018-Jan-03 04:16N 52°24' E 004°46'0 0.0
2018-Jan-03 03:52N 52°24' E 004°46'0 0.0
2018-Jan-03 03:25N 52°24' E 004°46'0 0.0
2018-Jan-03 02:49N 52°24' E 004°46'0 0.0
2018-Jan-03 02:28N 52°24' E 004°46'0 0.0
2018-Jan-03 01:58N 52°24' E 004°46'0 0.0
2018-Jan-03 01:28N 52°24' E 004°46'0 0.0
2018-Jan-03 00:58N 52°24' E 004°46'0 0.0
2018-Jan-03 00:22N 52°24' E 004°46'0 0.0
2018-Jan-02 23:58N 52°24' E 004°46'0 0.0
2018-Jan-02 23:28N 52°24' E 004°46'0 0.0
2018-Jan-02 22:55N 52°24' E 004°46'0 0.0
2018-Jan-02 22:22N 52°24' E 004°46'0 0.0
2018-Jan-02 21:58N 52°24' E 004°46'0 0.0
2018-Jan-02 21:22N 52°24' E 004°46'0 0.0
2018-Jan-02 20:52N 52°24' E 004°46'0 0.0
2018-Jan-02 20:30N 52°24' E 004°46'1 1.1
2018-Jan-02 20:01N 52°25' E 004°47'3 5.0
2018-Jan-02 19:30N 52°26' E 004°43'4 7.6
2018-Jan-02 19:00N 52°28' E 004°38'1 1.5
2018-Jan-02 18:31N 52°28' E 004°36'2 4.4
2018-Jan-02 18:00N 52°28' E 004°33'3 7.0
2018-Jan-02 17:30N 52°29' E 004°27'2 4.0
2018-Jan-02 17:00N 52°28' E 004°24'1 1.8
2018-Jan-02 16:30N 52°28' E 004°26'1 2.6
2018-Jan-02 16:00N 52°29' E 004°25'3 6.2
2018-Jan-02 15:30N 52°29' E 004°20'4 7.5
2018-Jan-02 15:00N 52°29' E 004°14'  
Track history (hours):
 
Tides and Currents Weather Stations Pressure Air Temp Water Temp Dewpoint Dewpoint Depression Visibility Wind Speed Wind Dir Waves Ship Positions

Maersk Penguin

Last reported at 2018-Jan-12 14:53 UTC. Time now 2018-Jan-22 10:42 UTC.
Position N 49°43' W 003°52'.
Warning: this ship's position is 9 days out of date.

Length 244 m; draft 13.6 m.

Type: Ship. MMSI: 565532000.

Date/timePositionNaut miles runAvg speedWind from/ knotsBaromVisibWave heightAir tempDewpointWater temp
2018-Jan-12 14:53N 49°43' W 003°52'512.1
2018-Jan-12 14:29N 49°45' W 003°46'612.2
2018-Jan-12 13:59N 49°49' W 003°38'712.1
2018-Jan-12 13:24N 49°52' W 003°28'512.9
2018-Jan-12 13:00N 49°53' W 003°21'613.0
2018-Jan-12 12:30N 49°55' W 003°11'713.5
2018-Jan-12 12:00N 49°57' W 003°01'713.9
2018-Jan-12 11:30N 49°59' W 002°51'714.5
2018-Jan-12 11:01N 50°01' W 002°40'2515.1
2018-Jan-12 09:23N 50°08' W 002°03'714.7
2018-Jan-12 08:55N 50°10' W 001°53'5612.6
2018-Jan-12 04:29N 50°24' W 000°28'611.9
2018-Jan-12 04:00N 50°26' W 000°20'612.4
2018-Jan-12 03:30N 50°27' W 000°11'612.9
2018-Jan-12 03:00N 50°29' W 000°01'713.3
2018-Jan-12 02:30N 50°31' E 000°09'713.8
2018-Jan-12 02:00N 50°33' E 000°20'714.2
2018-Jan-12 01:30N 50°34' E 000°31'714.3
2018-Jan-12 01:00N 50°38' E 000°41'714.6
2018-Jan-12 00:30N 50°42' E 000°50'714.5
2018-Jan-12 00:00N 50°47' E 000°59'714.2
2018-Jan-11 23:30N 50°51' E 001°08'713.8
2018-Jan-11 22:59N 50°55' E 001°17'613.3
2018-Jan-11 22:30N 50°60' E 001°24'612.5
2018-Jan-11 22:00N 51°04' E 001°31'611.9
2018-Jan-11 21:30N 51°08' E 001°38'612.0
2018-Jan-11 21:00N 51°12' E 001°45'612.1
2018-Jan-11 20:30N 51°18' E 001°49'612.5
2018-Jan-11 20:00N 51°23' E 001°54'612.9
2018-Jan-11 19:30N 51°29' E 001°59'10711.9
2018-Jan-11 10:30N 52°29' E 004°23'5 9.4
2018-Jan-11 10:00N 52°28' E 004°30'3 6.9
2018-Jan-11 09:30N 52°28' E 004°36'0 0.6
2018-Jan-11 09:00N 52°28' E 004°37'0 0.4
2018-Jan-11 08:30N 52°28' E 004°37'1 1.1
2018-Jan-11 08:00N 52°28' E 004°38'2 3.2
2018-Jan-11 07:30N 52°27' E 004°40'3 5.8
2018-Jan-11 07:01N 52°26' E 004°44'2 4.0
2018-Jan-11 06:30N 52°24' E 004°47'0 0.7
2018-Jan-11 05:58N 52°24' E 004°46'0 0.0
2018-Jan-11 05:13N 52°24' E 004°46'0 0.0
2018-Jan-11 03:28N 52°24' E 004°46'0 0.0
2018-Jan-11 00:58N 52°24' E 004°46'0 0.0
2018-Jan-11 00:04N 52°24' E 004°46'0 0.0
2018-Jan-10 23:49N 52°24' E 004°46'0 0.0
2018-Jan-10 21:34N 52°24' E 004°46'0 0.1
2018-Jan-10 21:25N 52°24' E 004°46'0 0.0
2018-Jan-10 20:55N 52°24' E 004°46'0 0.0
2018-Jan-10 20:22N 52°24' E 004°46'0 0.0
2018-Jan-10 18:52N 52°24' E 004°46'0 0.0
2018-Jan-10 17:10N 52°24' E 004°46'0 0.0
2018-Jan-10 15:34N 52°24' E 004°46'0 0.0
2018-Jan-10 11:43N 52°24' E 004°46'0 0.0
2018-Jan-10 11:19N 52°24' E 004°46'0 0.0
2018-Jan-10 10:58N 52°24' E 004°46'0 0.0
2018-Jan-10 10:28N 52°24' E 004°46'0 0.0
2018-Jan-10 09:55N 52°24' E 004°46'0 0.0
2018-Jan-10 09:19N 52°24' E 004°46'0 0.0
2018-Jan-10 08:58N 52°24' E 004°46'0 0.0
2018-Jan-10 07:58N 52°24' E 004°46'0 0.0
2018-Jan-10 07:19N 52°24' E 004°46'0 0.0
2018-Jan-10 06:04N 52°24' E 004°46'0 0.0
2018-Jan-10 05:40N 52°24' E 004°46'0 0.0
2018-Jan-10 05:22N 52°24' E 004°46'0 0.0
2018-Jan-10 04:31N 52°24' E 004°46'0 0.0
2018-Jan-10 04:22N 52°24' E 004°46'0 0.0
2018-Jan-10 03:49N 52°24' E 004°46'0 0.0
2018-Jan-10 03:13N 52°24' E 004°46'0 0.0
2018-Jan-10 02:58N 52°24' E 004°46'0 0.0
2018-Jan-10 00:52N 52°24' E 004°46'0 0.0
2018-Jan-10 00:16N 52°24' E 004°46'0 0.0
2018-Jan-09 22:58N 52°24' E 004°46'0 0.0
2018-Jan-09 22:10N 52°24' E 004°46'0 0.0
2018-Jan-09 20:04N 52°24' E 004°46'0 0.0
2018-Jan-09 19:58N 52°24' E 004°46'0 0.0
2018-Jan-09 19:16N 52°24' E 004°46'0 0.0
2018-Jan-09 18:55N 52°24' E 004°46'0 0.0
2018-Jan-09 16:52N 52°24' E 004°46'0 0.0
2018-Jan-09 16:25N 52°24' E 004°46'0 0.0
2018-Jan-09 15:55N 52°24' E 004°46'0 0.0
2018-Jan-09 15:28N 52°24' E 004°46'0 0.0
2018-Jan-09 10:22N 52°24' E 004°46'0 0.0
2018-Jan-09 08:28N 52°24' E 004°46'0 0.0
2018-Jan-09 06:37N 52°24' E 004°46'0 0.0
2018-Jan-09 06:28N 52°24' E 004°46'0 0.0
2018-Jan-09 05:49N 52°24' E 004°46'0 0.0
2018-Jan-09 03:49N 52°24' E 004°46'0 0.0
2018-Jan-09 02:55N 52°24' E 004°46'0 0.0
2018-Jan-09 02:22N 52°24' E 004°46'0 0.0
2018-Jan-09 01:10N 52°24' E 004°46'0 0.0
2018-Jan-09 00:22N 52°24' E 004°46'0 0.0
2018-Jan-08 23:43N 52°24' E 004°46'0 0.0
2018-Jan-08 23:22N 52°24' E 004°46'0 0.0
2018-Jan-08 20:40N 52°24' E 004°46'0 0.0
2018-Jan-08 16:28N 52°24' E 004°46'0 0.0
2018-Jan-08 13:52N 52°24' E 004°46'0 0.0
2018-Jan-08 13:13N 52°24' E 004°46'0 0.0
2018-Jan-08 12:58N 52°24' E 004°46'0 0.0
2018-Jan-08 12:28N 52°24' E 004°46'0 0.0
2018-Jan-08 10:58N 52°24' E 004°46'0 0.0
2018-Jan-08 06:46N 52°24' E 004°46'0 0.0
2018-Jan-08 05:07N 52°24' E 004°46'0 0.0
2018-Jan-08 04:13N 52°24' E 004°46'0 0.0
2018-Jan-08 00:25N 52°24' E 004°46'0 0.0
2018-Jan-07 23:46N 52°24' E 004°46'0 0.0
2018-Jan-07 23:28N 52°24' E 004°46'0 0.0
2018-Jan-07 21:25N 52°24' E 004°46'0 0.0
2018-Jan-07 20:49N 52°24' E 004°46'0 0.0
2018-Jan-07 20:19N 52°24' E 004°46'0 0.0
2018-Jan-07 19:43N 52°24' E 004°46'0 0.0
2018-Jan-07 16:34N 52°24' E 004°46'0 0.0
2018-Jan-07 15:34N 52°24' E 004°46'0 0.0
2018-Jan-07 15:19N 52°24' E 004°46'0 0.0
2018-Jan-07 14:46N 52°24' E 004°46'0 0.0
2018-Jan-07 11:28N 52°24' E 004°46'0 0.0
2018-Jan-07 10:46N 52°24' E 004°46'0 0.0
2018-Jan-07 07:34N 52°24' E 004°46'0 0.0
2018-Jan-07 07:04N 52°24' E 004°46'0 0.0
2018-Jan-07 06:58N 52°24' E 004°46'0 0.0
2018-Jan-07 06:28N 52°24' E 004°46'0 0.0
2018-Jan-07 05:58N 52°24' E 004°46'0 0.0
2018-Jan-07 05:25N 52°24' E 004°46'0 0.0
2018-Jan-07 04:58N 52°24' E 004°46'0 0.0
2018-Jan-07 04:01N 52°24' E 004°46'0 0.1
2018-Jan-07 03:55N 52°24' E 004°46'0 0.0
2018-Jan-07 02:13N 52°24' E 004°46'0 0.0
2018-Jan-07 01:43N 52°24' E 004°46'0 0.0
2018-Jan-07 01:19N 52°24' E 004°46'0 0.0
2018-Jan-07 00:25N 52°24' E 004°46'0 0.0
2018-Jan-06 23:58N 52°24' E 004°46'0 0.0
2018-Jan-06 23:28N 52°24' E 004°46'0 0.0
2018-Jan-06 22:58N 52°24' E 004°46'0 0.0
2018-Jan-06 22:28N 52°24' E 004°46'0 0.0
2018-Jan-06 21:58N 52°24' E 004°46'0 0.0
2018-Jan-06 21:25N 52°24' E 004°46'0 0.0
2018-Jan-06 20:55N 52°24' E 004°46'0 0.0
2018-Jan-06 20:19N 52°24' E 004°46'0 0.0
2018-Jan-06 19:58N 52°24' E 004°46'0 0.0
2018-Jan-06 18:58N 52°24' E 004°46'0 0.0
2018-Jan-06 18:25N 52°24' E 004°46'0 0.0
2018-Jan-06 17:58N 52°24' E 004°46'0 0.0
2018-Jan-06 17:22N 52°24' E 004°46'0 0.0
2018-Jan-06 16:49N 52°24' E 004°46'0 0.0
2018-Jan-06 16:28N 52°24' E 004°46'0 0.0
2018-Jan-06 15:49N 52°24' E 004°46'0 0.0
2018-Jan-06 15:25N 52°24' E 004°46'0 0.0
2018-Jan-06 14:58N 52°24' E 004°46'0 0.0
2018-Jan-06 14:28N 52°24' E 004°46'0 0.0
2018-Jan-06 13:55N 52°24' E 004°46'0 0.0
2018-Jan-06 13:28N 52°24' E 004°46'0 0.0
2018-Jan-06 12:58N 52°24' E 004°46'0 0.0
2018-Jan-06 12:04N 52°24' E 004°46'0 0.0
2018-Jan-06 11:52N 52°24' E 004°46'0 0.0
2018-Jan-06 11:28N 52°24' E 004°46'0 0.0
2018-Jan-06 10:55N 52°24' E 004°46'0 0.0
2018-Jan-06 10:22N 52°24' E 004°46'0 0.0
2018-Jan-06 09:52N 52°24' E 004°46'0 0.0
2018-Jan-06 09:28N 52°24' E 004°46'0 0.0
2018-Jan-06 08:55N 52°24' E 004°46'0 0.0
2018-Jan-06 08:25N 52°24' E 004°46'0 0.0
2018-Jan-06 07:52N 52°24' E 004°46'0 0.0
2018-Jan-06 07:25N 52°24' E 004°46'0 0.0
2018-Jan-06 06:49N 52°24' E 004°46'0 0.0
2018-Jan-06 06:28N 52°24' E 004°46'0 0.0
2018-Jan-06 05:58N 52°24' E 004°46'0 0.0
2018-Jan-06 05:28N 52°24' E 004°46'0 0.0
2018-Jan-06 04:58N 52°24' E 004°46'0 0.0
2018-Jan-06 04:28N 52°24' E 004°46'0 0.0
2018-Jan-06 03:58N 52°24' E 004°46'0 0.0
2018-Jan-06 03:28N 52°24' E 004°46'0 0.0
2018-Jan-06 02:55N 52°24' E 004°46'0 0.0
2018-Jan-06 02:25N 52°24' E 004°46'0 0.0
2018-Jan-06 01:46N 52°24' E 004°46'0 0.0
2018-Jan-06 01:28N 52°24' E 004°46'0 0.0
2018-Jan-06 00:55N 52°24' E 004°46'0 0.0
2018-Jan-06 00:28N 52°24' E 004°46'0 0.0
2018-Jan-05 23:58N 52°24' E 004°46'0 0.0
2018-Jan-05 23:16N 52°24' E 004°46'0 0.0
2018-Jan-05 22:58N 52°24' E 004°46'0 0.0
2018-Jan-05 22:22N 52°24' E 004°46'0 0.0
2018-Jan-05 21:58N 52°24' E 004°46'0 0.0
2018-Jan-05 21:28N 52°24' E 004°46'0 0.0
2018-Jan-05 20:43N 52°24' E 004°46'0 0.0
2018-Jan-05 20:22N 52°24' E 004°46'0 0.0
2018-Jan-05 19:58N 52°24' E 004°46'0 0.0
2018-Jan-05 19:28N 52°24' E 004°46'0 0.0
2018-Jan-05 18:55N 52°24' E 004°46'0 0.0
2018-Jan-05 18:28N 52°24' E 004°46'0 0.0
2018-Jan-05 17:43N 52°24' E 004°46'0 0.0
2018-Jan-05 17:28N 52°24' E 004°46'0 0.0
2018-Jan-05 15:58N 52°24' E 004°46'0 0.0
2018-Jan-05 15:28N 52°24' E 004°46'0 0.0
2018-Jan-05 14:46N 52°24' E 004°46'0 0.0
2018-Jan-05 14:28N 52°24' E 004°46'0 0.0
2018-Jan-05 13:52N 52°24' E 004°46'0 0.0
2018-Jan-05 13:28N 52°24' E 004°46'0 0.0
2018-Jan-05 12:58N 52°24' E 004°46'0 0.0
2018-Jan-05 11:55N 52°24' E 004°46'0 0.0
2018-Jan-05 11:25N 52°24' E 004°46'0 0.0
2018-Jan-05 10:43N 52°24' E 004°46'0 0.0
2018-Jan-05 10:25N 52°24' E 004°46'0 0.0
2018-Jan-05 09:52N 52°24' E 004°46'0 0.0
2018-Jan-05 09:16N 52°24' E 004°46'0 0.0
2018-Jan-05 08:46N 52°24' E 004°46'0 0.0
2018-Jan-05 08:28N 52°24' E 004°46'0 0.0
2018-Jan-05 07:55N 52°24' E 004°46'0 0.0
2018-Jan-05 07:22N 52°24' E 004°46'0 0.0
2018-Jan-05 06:43N 52°24' E 004°46'0 0.0
2018-Jan-05 06:25N 52°24' E 004°46'0 0.0
2018-Jan-05 05:58N 52°24' E 004°46'0 0.0
2018-Jan-05 05:13N 52°24' E 004°46'0 0.0
2018-Jan-05 04:40N 52°24' E 004°46'0 0.0
2018-Jan-05 04:28N 52°24' E 004°46'0 0.0
2018-Jan-05 03:49N 52°24' E 004°46'0 0.0
2018-Jan-05 02:46N 52°24' E 004°46'0 0.0
2018-Jan-05 02:22N 52°24' E 004°46'0 0.0
2018-Jan-05 01:58N 52°24' E 004°46'0 0.0
2018-Jan-05 01:28N 52°24' E 004°46'0 0.0
2018-Jan-05 00:52N 52°24' E 004°46'0 0.0
2018-Jan-05 00:22N 52°24' E 004°46'0 0.0
2018-Jan-04 23:58N 52°24' E 004°46'0 0.0
2018-Jan-04 23:16N 52°24' E 004°46'0 0.0
2018-Jan-04 20:22N 52°24' E 004°46'0 0.0
2018-Jan-04 19:31N 52°24' E 004°46'0 0.0
2018-Jan-04 19:22N 52°24' E 004°46'0 0.0
2018-Jan-04 18:58N 52°24' E 004°46'0 0.0
2018-Jan-04 18:19N 52°24' E 004°46'0 0.0
2018-Jan-04 16:58N 52°24' E 004°46'0 0.0
2018-Jan-04 16:22N 52°24' E 004°46'0 0.0
2018-Jan-04 15:58N 52°24' E 004°46'0 0.0
2018-Jan-04 15:28N 52°24' E 004°46'0 0.0
2018-Jan-04 14:58N 52°24' E 004°46'0 0.0
2018-Jan-04 14:19N 52°24' E 004°46'0 0.0
2018-Jan-04 13:49N 52°24' E 004°46'0 0.0
2018-Jan-04 13:28N 52°24' E 004°46'0 0.0
2018-Jan-04 12:55N 52°24' E 004°46'0 0.0
2018-Jan-04 12:25N 52°24' E 004°46'0 0.0
2018-Jan-04 11:55N 52°24' E 004°46'0 0.0
2018-Jan-04 11:22N 52°24' E 004°46'0 0.0
2018-Jan-04 10:58N 52°24' E 004°46'0 0.0
2018-Jan-04 10:28N 52°24' E 004°46'0 0.0
2018-Jan-04 09:22N 52°24' E 004°46'0 0.0
2018-Jan-04 08:49N 52°24' E 004°46'0 0.0
2018-Jan-04 08:28N 52°24' E 004°46'0 0.0
2018-Jan-04 07:40N 52°24' E 004°46'0 0.0
2018-Jan-04 07:22N 52°24' E 004°46'0 0.0
2018-Jan-04 06:46N 52°24' E 004°46'0 0.0
2018-Jan-04 06:07N 52°24' E 004°46'0 0.0
2018-Jan-04 05:58N 52°24' E 004°46'0 0.0
2018-Jan-04 05:28N 52°24' E 004°46'0 0.0
2018-Jan-04 04:58N 52°24' E 004°46'0 0.0
2018-Jan-04 04:22N 52°24' E 004°46'0 0.0
2018-Jan-04 03:55N 52°24' E 004°46'0 0.0
2018-Jan-04 03:28N 52°24' E 004°46'0 0.0
2018-Jan-04 02:52N 52°24' E 004°46'0 0.0
2018-Jan-04 02:28N 52°24' E 004°46'0 0.0
2018-Jan-04 01:58N 52°24' E 004°46'0 0.0
2018-Jan-04 01:28N 52°24' E 004°46'0 0.0
2018-Jan-04 00:58N 52°24' E 004°46'0 0.0
2018-Jan-04 00:16N 52°24' E 004°46'0 0.0
2018-Jan-03 23:52N 52°24' E 004°46'0 0.0
2018-Jan-03 23:28N 52°24' E 004°46'0 0.0
2018-Jan-03 22:58N 52°24' E 004°46'0 0.0
2018-Jan-03 22:16N 52°24' E 004°46'0 0.0
2018-Jan-03 21:49N 52°24' E 004°46'0 0.0
2018-Jan-03 21:04N 52°24' E 004°46'0 0.0
2018-Jan-03 20:52N 52°24' E 004°46'0 0.0
2018-Jan-03 20:22N 52°24' E 004°46'0 0.0
2018-Jan-03 19:58N 52°24' E 004°46'0 0.0
2018-Jan-03 19:28N 52°24' E 004°46'0 0.0
2018-Jan-03 18:58N 52°24' E 004°46'0 0.0
2018-Jan-03 18:28N 52°24' E 004°46'0 0.0
2018-Jan-03 17:55N 52°24' E 004°46'0 0.0
2018-Jan-03 17:22N 52°24' E 004°46'0 0.0
2018-Jan-03 16:58N 52°24' E 004°46'0 0.0
2018-Jan-03 16:25N 52°24' E 004°46'0 0.0
2018-Jan-03 15:28N 52°24' E 004°46'0 0.0
2018-Jan-03 14:58N 52°24' E 004°46'0 0.0
2018-Jan-03 14:13N 52°24' E 004°46'0 0.0
2018-Jan-03 13:49N 52°24' E 004°46'0 0.0
2018-Jan-03 13:19N 52°24' E 004°46'0 0.0
2018-Jan-03 12:58N 52°24' E 004°46'0 0.0
2018-Jan-03 12:25N 52°24' E 004°46'0 0.0
2018-Jan-03 11:46N 52°24' E 004°46'0 0.0
2018-Jan-03 11:28N 52°24' E 004°46'0 0.0
2018-Jan-03 10:58N 52°24' E 004°46'0 0.0
2018-Jan-03 10:28N 52°24' E 004°46'0 0.0
2018-Jan-03 09:52N 52°24' E 004°46'0 0.0
2018-Jan-03 09:16N 52°24' E 004°46'0 0.0
2018-Jan-03 08:58N 52°24' E 004°46'0 0.0
2018-Jan-03 08:16N 52°24' E 004°46'0 0.0
2018-Jan-03 07:55N 52°24' E 004°46'0 0.0
2018-Jan-03 07:25N 52°24' E 004°46'0 0.0
2018-Jan-03 06:52N 52°24' E 004°46'0 0.0
2018-Jan-03 06:25N 52°24' E 004°46'0 0.0
2018-Jan-03 05:58N 52°24' E 004°46'0 0.0
2018-Jan-03 05:22N 52°24' E 004°46'0 0.0
2018-Jan-03 04:49N 52°24' E 004°46'0 0.0
2018-Jan-03 04:16N 52°24' E 004°46'0 0.0
2018-Jan-03 03:52N 52°24' E 004°46'0 0.0
2018-Jan-03 03:25N 52°24' E 004°46'0 0.0
2018-Jan-03 02:49N 52°24' E 004°46'0 0.0
2018-Jan-03 02:28N 52°24' E 004°46'0 0.0
2018-Jan-03 01:58N 52°24' E 004°46'0 0.0
2018-Jan-03 01:28N 52°24' E 004°46'0 0.0
2018-Jan-03 00:58N 52°24' E 004°46'0 0.0
2018-Jan-03 00:22N 52°24' E 004°46'0 0.0
2018-Jan-02 23:58N 52°24' E 004°46'0 0.0
2018-Jan-02 23:28N 52°24' E 004°46'0 0.0
2018-Jan-02 22:55N 52°24' E 004°46'0 0.0
2018-Jan-02 22:22N 52°24' E 004°46'0 0.0
2018-Jan-02 21:58N 52°24' E 004°46'0 0.0
2018-Jan-02 21:22N 52°24' E 004°46'0 0.0
2018-Jan-02 20:52N 52°24' E 004°46'0 0.0
2018-Jan-02 20:30N 52°24' E 004°46'1 1.1
2018-Jan-02 20:01N 52°25' E 004°47'3 5.0
2018-Jan-02 19:30N 52°26' E 004°43'4 7.6
2018-Jan-02 19:00N 52°28' E 004°38'1 1.5
2018-Jan-02 18:31N 52°28' E 004°36'2 4.4
2018-Jan-02 18:00N 52°28' E 004°33'3 7.0
2018-Jan-02 17:30N 52°29' E 004°27'2 4.0
2018-Jan-02 17:00N 52°28' E 004°24'1 1.8
2018-Jan-02 16:30N 52°28' E 004°26'1 2.6
2018-Jan-02 16:00N 52°29' E 004°25'3 6.2
2018-Jan-02 15:30N 52°29' E 004°20'4 7.5
2018-Jan-02 15:00N 52°29' E 004°14'  

Dump ship's entire track history